Saturday, November 1, 2014, 2:35 AM EDT

KJYO, Leesburg / Godfrey

Location: Leesburg, VA, United States Lat: 39.083
Local Time: 2:35 AM EDT ( 6:35 GMT) Lon: -77.567
Time Zone: US/Eastern Elev: 390 ft

Show me the last for .
Show Decoded

2014-11-01 02:15 METAR KJYO 010615Z AUTO 36006KT 10SM SCT095 BKN120 08/03 A2982 RMK AO2 =
2014-11-01 01:55 METAR KJYO 010555Z AUTO 02006KT 10SM SCT095 SCT120 08/03 A2983 RMK AO2 =
2014-11-01 01:35 METAR KJYO 010535Z AUTO 01004KT 10SM SCT120 08/03 A2983 RMK AO2 =
2014-11-01 01:15 METAR KJYO 010515Z AUTO 36005KT 10SM SCT120 08/02 A2983 RMK AO2 =
2014-11-01 00:55 METAR KJYO 010455Z AUTO 01007KT 10SM SCT120 08/02 A2984 RMK AO2 =
2014-11-01 00:35 METAR KJYO 010435Z AUTO 01007KT 10SM SCT120 08/03 A2984 RMK AO2 =
2014-11-01 00:15 METAR KJYO 010415Z AUTO 01006KT 10SM BKN120 08/03 A2985 RMK AO2 =
2014-10-31 23:35 METAR KJYO 010335Z AUTO 36004KT 10SM CLR 08/04 A2986 RMK AO2 =
2014-10-31 23:15 METAR KJYO 010315Z AUTO 01005KT 10SM SCT060 BKN120 08/04 A2986 RMK AO2 =
2014-10-31 22:55 METAR KJYO 010255Z AUTO 35003KT 10SM OVC060 09/04 A2987 RMK AO2 =
2014-10-31 22:35 METAR KJYO 010235Z AUTO 36003KT 10SM OVC060 08/04 A2987 RMK AO2 =
2014-10-31 22:15 METAR KJYO 010215Z AUTO 34003KT 10SM BKN060 08/04 A2987 RMK AO2 =
2014-10-31 21:55 METAR KJYO 010155Z AUTO 00000KT 10SM BKN060 09/04 A2987 RMK AO2 =
2014-10-31 21:35 METAR KJYO 010135Z AUTO 04003KT 10SM OVC060 10/03 A2986 RMK AO2 =
2014-10-31 21:15 METAR KJYO 010115Z AUTO 04003KT 10SM OVC060 10/03 A2987 RMK AO2 =
2014-10-31 20:55 METAR KJYO 010055Z AUTO 04003KT 10SM OVC060 10/03 A2987 RMK AO2 =
2014-10-31 20:35 METAR KJYO 010035Z AUTO 00000KT 10SM OVC060 10/03 A2987 RMK AO2 =
2014-10-31 20:15 METAR KJYO 010015Z AUTO 04003KT 10SM OVC060 10/03 A2987 RMK AO2 =
2014-10-31 19:55 METAR KJYO 312355Z AUTO 00000KT 10SM OVC060 10/03 A2987 RMK AO2 =
2014-10-31 19:35 METAR KJYO 312335Z AUTO 06003KT 10SM OVC060 11/03 A2988 RMK AO2 =
2014-10-31 19:15 METAR KJYO 312315Z AUTO 07003KT 10SM OVC060 11/03 A2988 RMK AO2 =
2014-10-31 18:55 METAR KJYO 312255Z AUTO 06003KT 10SM OVC060 11/03 A2988 RMK AO2 =
2014-10-31 18:35 METAR KJYO 312235Z AUTO 00000KT 10SM OVC060 11/03 A2988 RMK AO2 =
2014-10-31 18:15 METAR KJYO 312215Z AUTO 00000KT 10SM OVC060 11/03 A2988 RMK AO2 =
2014-10-31 17:55 METAR KJYO 312155Z AUTO 07005KT 10SM OVC060 11/03 A2987 RMK AO2 =
2014-10-31 17:35 METAR KJYO 312135Z AUTO 00000KT 10SM OVC060 12/03 A2987 RMK AO2 =
2014-10-31 17:15 METAR KJYO 312115Z AUTO 00000KT 10SM OVC060 12/03 A2987 RMK AO2 =
2014-10-31 16:55 METAR KJYO 312055Z AUTO 08003KT 10SM OVC060 12/03 A2988 RMK AO2 =
2014-10-31 16:35 METAR KJYO 312035Z AUTO 00000KT 10SM OVC060 12/03 A2988 RMK AO2 =
2014-10-31 16:15 METAR KJYO 312015Z AUTO 10SM OVC050 12/03 A2988 RMK AO2 =
2014-10-31 15:55 METAR KJYO 311955Z AUTO 12003KT 10SM OVC050 12/03 A2988 RMK AO2 =
2014-10-31 15:35 METAR KJYO 311935Z AUTO 00000KT 10SM OVC050 12/03 A2988 RMK AO2 =
2014-10-31 15:15 METAR KJYO 311915Z AUTO 00000KT 10SM OVC050 12/03 A2988 RMK AO2 =
2014-10-31 14:55 METAR KJYO 311855Z AUTO 00000KT 10SM OVC060 12/03 A2989 RMK AO2 =
2014-10-31 14:35 METAR KJYO 311835Z AUTO 05004KT 10SM OVC060 12/04 A2990 RMK AO2 =
2014-10-31 14:15 METAR KJYO 311815Z AUTO 05005KT 7SM OVC060 12/03 A2990 RMK AO2 =
2014-10-31 13:55 METAR KJYO 311755Z AUTO 00000KT 10SM OVC060 12/03 A2991 RMK AO2 =
2014-10-31 13:35 METAR KJYO 311735Z AUTO 10SM OVC060 12/03 A2992 RMK AO2 =
2014-10-31 13:15 METAR KJYO 311715Z AUTO 00000KT 10SM OVC060 12/05 A2993 RMK AO2 =
2014-10-31 12:55 METAR KJYO 311655Z AUTO 03003KT 10SM OVC050 12/06 A2994 RMK AO2 =
2014-10-31 12:35 METAR KJYO 311635Z AUTO 00000KT 10SM OVC050 11/06 A2995 RMK AO2 =
2014-10-31 12:15 METAR KJYO 311615Z AUTO 07004KT 10SM OVC050 11/06 A2996 RMK AO2 =
2014-10-31 11:55 METAR KJYO 311555Z AUTO 06005KT 10SM OVC050 11/06 A2997 RMK AO2 =
2014-10-31 11:35 METAR KJYO 311535Z AUTO 12004KT 10SM OVC050 11/06 A2998 RMK AO2 =
2014-10-31 11:15 METAR KJYO 311515Z AUTO 00000KT 10SM OVC050 10/06 A2999 RMK AO2 =
2014-10-31 10:55 METAR KJYO 311455Z AUTO 00000KT 10SM OVC050 10/06 A2999 RMK AO2 =
2014-10-31 10:35 METAR KJYO 311435Z AUTO 09004KT 10SM OVC050 09/06 A2999 RMK AO2 =
2014-10-31 10:15 METAR KJYO 311415Z AUTO 10SM OVC050 09/06 A2999 RMK AO2 =
2014-10-31 09:55 METAR KJYO 311355Z AUTO 00000KT 10SM OVC050 08/07 A3000 RMK AO2 =
2014-10-31 09:35 METAR KJYO 311335Z AUTO 00000KT 10SM OVC055 07/07 A3001 RMK AO2 =
2014-10-31 09:15 METAR KJYO 311315Z AUTO 00000KT 10SM OVC055 06/06 A3001 RMK AO2 =
2014-10-31 08:55 METAR KJYO 311255Z AUTO 00000KT 10SM OVC055 06/06 A3001 RMK AO2 =
2014-10-31 08:35 METAR KJYO 311235Z AUTO 33003KT 10SM OVC055 05/05 A3001 RMK AO2 =
2014-10-31 08:15 METAR KJYO 311215Z AUTO 00000KT 10SM OVC055 04/04 A3001 RMK AO2 =
2014-10-31 07:55 METAR KJYO 311155Z AUTO 00000KT 10SM OVC055 03/03 A3001 RMK AO2 =
2014-10-31 07:35 METAR KJYO 311135Z AUTO 00000KT 10SM OVC055 03/03 A3000 RMK AO2 =
2014-10-31 07:15 METAR KJYO 311115Z AUTO 34003KT 10SM OVC055 03/03 A3001 RMK AO2 =
2014-10-31 06:55 METAR KJYO 311055Z AUTO 32004KT 10SM OVC055 03/03 A3001 RMK AO2 =
2014-10-31 06:35 METAR KJYO 311035Z AUTO 06004KT 10SM OVC055 03/03 A3000 RMK AO2 =
2014-10-31 06:15 METAR KJYO 311015Z AUTO 00000KT 10SM OVC055 03/03 A3001 RMK AO2 =
2014-10-31 05:55 METAR KJYO 310955Z AUTO 00000KT 10SM OVC055 03/03 A3001 RMK AO2 =
2014-10-31 05:35 METAR KJYO 310935Z AUTO 00000KT 10SM OVC055 03/03 A3001 RMK AO2 =
2014-10-31 05:15 METAR KJYO 310915Z AUTO 00000KT 10SM OVC055 03/03 A3001 RMK AO2 =
2014-10-31 04:55 METAR KJYO 310855Z AUTO 00000KT 10SM OVC055 03/03 A3001 RMK AO2 =
2014-10-31 04:35 METAR KJYO 310835Z AUTO 00000KT 10SM OVC055 03/03 A3001 RMK AO2 =
2014-10-31 04:15 METAR KJYO 310815Z AUTO 00000KT 10SM SCT055 03/03 A3002 RMK AO2 =
2014-10-31 03:35 METAR KJYO 310735Z AUTO 00000KT 10SM BKN055 03/03 A3003 RMK AO2 =
2014-10-31 03:15 METAR KJYO 310715Z AUTO 00000KT 10SM BKN055 03/03 A3003 RMK AO2 =
2014-10-31 02:55 METAR KJYO 310655Z AUTO 00000KT 10SM SCT055 03/03 A3003 RMK AO2 =

Support USWX by starting your Amazon purchase here.